sensor_id;sensor_type;location;lat;lon;timestamp;P1;durP1;ratioP1;P2;durP2;ratioP2
12886;SDS011;6511;49.746;6.094;2023-04-06T00:00:49;12.10;;;8.17;;
12886;SDS011;6511;49.746;6.094;2023-04-06T00:03:15;12.35;;;7.80;;
12886;SDS011;6511;49.746;6.094;2023-04-06T00:05:41;12.65;;;8.05;;
12886;SDS011;6511;49.746;6.094;2023-04-06T00:08:06;13.07;;;8.30;;
12886;SDS011;6511;49.746;6.094;2023-04-06T00:10:32;11.70;;;8.00;;
12886;SDS011;6511;49.746;6.094;2023-04-06T00:12:59;13.50;;;8.00;;
12886;SDS011;6511;49.746;6.094;2023-04-06T00:15:25;14.02;;;8.52;;
12886;SDS011;6511;49.746;6.094;2023-04-06T00:17:51;14.23;;;8.13;;
12886;SDS011;6511;49.746;6.094;2023-04-06T00:20:17;12.77;;;7.93;;
12886;SDS011;6511;49.746;6.094;2023-04-06T00:22:43;11.13;;;7.60;;
12886;SDS011;6511;49.746;6.094;2023-04-06T00:25:10;12.57;;;7.82;;
12886;SDS011;6511;49.746;6.094;2023-04-06T00:27:36;13.23;;;8.10;;
12886;SDS011;6511;49.746;6.094;2023-04-06T00:30:03;16.45;;;8.10;;
12886;SDS011;6511;49.746;6.094;2023-04-06T00:32:30;13.23;;;7.93;;
12886;SDS011;6511;49.746;6.094;2023-04-06T00:34:56;17.13;;;9.90;;
12886;SDS011;6511;49.746;6.094;2023-04-06T00:37:21;19.05;;;10.60;;
12886;SDS011;6511;49.746;6.094;2023-04-06T00:39:47;17.77;;;10.40;;
12886;SDS011;6511;49.746;6.094;2023-04-06T00:42:13;18.80;;;10.30;;
12886;SDS011;6511;49.746;6.094;2023-04-06T00:44:42;17.20;;;9.27;;
12886;SDS011;6511;49.746;6.094;2023-04-06T00:47:08;15.43;;;8.97;;
12886;SDS011;6511;49.746;6.094;2023-04-06T00:49:34;17.15;;;9.15;;
12886;SDS011;6511;49.746;6.094;2023-04-06T00:52:00;16.00;;;9.43;;
12886;SDS011;6511;49.746;6.094;2023-04-06T00:54:26;16.65;;;9.40;;
12886;SDS011;6511;49.746;6.094;2023-04-06T00:56:52;15.67;;;9.23;;
12886;SDS011;6511;49.746;6.094;2023-04-06T00:59:18;17.02;;;9.30;;
12886;SDS011;6511;49.746;6.094;2023-04-06T01:01:44;18.10;;;9.20;;
12886;SDS011;6511;49.746;6.094;2023-04-06T01:04:11;15.13;;;8.50;;
12886;SDS011;6511;49.746;6.094;2023-04-06T01:06:36;13.77;;;8.73;;
12886;SDS011;6511;49.746;6.094;2023-04-06T01:09:02;15.55;;;9.13;;
12886;SDS011;6511;49.746;6.094;2023-04-06T01:11:28;15.30;;;9.17;;
12886;SDS011;6511;49.746;6.094;2023-04-06T01:13:53;16.00;;;9.38;;
12886;SDS011;6511;49.746;6.094;2023-04-06T01:16:20;16.05;;;9.15;;
12886;SDS011;6511;49.746;6.094;2023-04-06T01:18:46;15.07;;;9.02;;
12886;SDS011;6511;49.746;6.094;2023-04-06T01:21:11;16.03;;;9.10;;
12886;SDS011;6511;49.746;6.094;2023-04-06T01:23:49;17.15;;;9.45;;
12886;SDS011;6511;49.746;6.094;2023-04-06T01:26:15;16.33;;;9.57;;
12886;SDS011;6511;49.746;6.094;2023-04-06T01:28:40;16.20;;;9.20;;
12886;SDS011;6511;49.746;6.094;2023-04-06T01:31:07;14.65;;;9.25;;
12886;SDS011;6511;49.746;6.094;2023-04-06T01:33:33;14.57;;;8.70;;
12886;SDS011;6511;49.746;6.094;2023-04-06T01:35:59;16.23;;;9.27;;
12886;SDS011;6511;49.746;6.094;2023-04-06T01:38:25;18.67;;;9.90;;
12886;SDS011;6511;49.746;6.094;2023-04-06T01:40:51;15.88;;;9.25;;
12886;SDS011;6511;49.746;6.094;2023-04-06T01:43:17;14.57;;;8.80;;
12886;SDS011;6511;49.746;6.094;2023-04-06T01:45:43;15.32;;;8.70;;
12886;SDS011;6511;49.746;6.094;2023-04-06T01:48:09;12.33;;;8.13;;
12886;SDS011;6511;49.746;6.094;2023-04-06T01:50:35;14.30;;;8.70;;
12886;SDS011;6511;49.746;6.094;2023-04-06T01:53:01;16.00;;;8.77;;
12886;SDS011;6511;49.746;6.094;2023-04-06T01:55:26;15.37;;;8.67;;
12886;SDS011;6511;49.746;6.094;2023-04-06T01:57:52;16.10;;;8.83;;
12886;SDS011;6511;49.746;6.094;2023-04-06T02:00:18;14.77;;;8.77;;
12886;SDS011;6511;49.746;6.094;2023-04-06T02:02:43;15.93;;;9.47;;
12886;SDS011;6511;49.746;6.094;2023-04-06T02:05:09;15.57;;;9.05;;
12886;SDS011;6511;49.746;6.094;2023-04-06T02:07:34;17.87;;;9.47;;
12886;SDS011;6511;49.746;6.094;2023-04-06T02:10:00;17.37;;;9.43;;
12886;SDS011;6511;49.746;6.094;2023-04-06T02:12:27;16.73;;;9.23;;
12886;SDS011;6511;49.746;6.094;2023-04-06T02:14:52;16.03;;;9.57;;
12886;SDS011;6511;49.746;6.094;2023-04-06T02:17:18;16.20;;;9.25;;
12886;SDS011;6511;49.746;6.094;2023-04-06T02:19:43;16.77;;;9.40;;
12886;SDS011;6511;49.746;6.094;2023-04-06T02:22:09;15.48;;;9.05;;
12886;SDS011;6511;49.746;6.094;2023-04-06T02:24:35;16.60;;;9.05;;
12886;SDS011;6511;49.746;6.094;2023-04-06T02:27:01;15.85;;;9.00;;
12886;SDS011;6511;49.746;6.094;2023-04-06T02:29:27;15.90;;;9.07;;
12886;SDS011;6511;49.746;6.094;2023-04-06T02:31:52;15.37;;;9.20;;
12886;SDS011;6511;49.746;6.094;2023-04-06T02:34:18;17.85;;;9.73;;
12886;SDS011;6511;49.746;6.094;2023-04-06T02:36:44;18.37;;;10.17;;
12886;SDS011;6511;49.746;6.094;2023-04-06T02:39:11;18.52;;;9.60;;
12886;SDS011;6511;49.746;6.094;2023-04-06T02:41:38;15.93;;;9.07;;
12886;SDS011;6511;49.746;6.094;2023-04-06T02:44:03;16.75;;;9.73;;
12886;SDS011;6511;49.746;6.094;2023-04-06T02:46:31;18.88;;;9.73;;
12886;SDS011;6511;49.746;6.094;2023-04-06T02:48:57;17.33;;;10.00;;
12886;SDS011;6511;49.746;6.094;2023-04-06T02:51:25;18.50;;;10.15;;
12886;SDS011;6511;49.746;6.094;2023-04-06T02:53:51;18.63;;;10.13;;
12886;SDS011;6511;49.746;6.094;2023-04-06T02:56:17;15.90;;;9.85;;
12886;SDS011;6511;49.746;6.094;2023-04-06T02:58:42;20.10;;;9.70;;
12886;SDS011;6511;49.746;6.094;2023-04-06T03:01:08;15.77;;;9.63;;
12886;SDS011;6511;49.746;6.094;2023-04-06T03:03:33;18.87;;;10.40;;
12886;SDS011;6511;49.746;6.094;2023-04-06T03:05:59;18.65;;;10.38;;
12886;SDS011;6511;49.746;6.094;2023-04-06T03:08:25;20.03;;;10.40;;
12886;SDS011;6511;49.746;6.094;2023-04-06T03:10:50;17.00;;;10.10;;
12886;SDS011;6511;49.746;6.094;2023-04-06T03:13:16;20.77;;;10.23;;
12886;SDS011;6511;49.746;6.094;2023-04-06T03:15:42;18.63;;;10.30;;
12886;SDS011;6511;49.746;6.094;2023-04-06T03:18:07;19.47;;;9.97;;
12886;SDS011;6511;49.746;6.094;2023-04-06T03:20:33;17.73;;;9.85;;
12886;SDS011;6511;49.746;6.094;2023-04-06T03:22:58;21.20;;;10.70;;
12886;SDS011;6511;49.746;6.094;2023-04-06T03:25:24;19.58;;;10.75;;
12886;SDS011;6511;49.746;6.094;2023-04-06T03:27:50;20.17;;;10.90;;
12886;SDS011;6511;49.746;6.094;2023-04-06T03:30:15;20.08;;;10.75;;
12886;SDS011;6511;49.746;6.094;2023-04-06T03:32:43;19.90;;;11.17;;
12886;SDS011;6511;49.746;6.094;2023-04-06T03:35:11;20.27;;;10.95;;
12886;SDS011;6511;49.746;6.094;2023-04-06T03:37:37;18.42;;;10.35;;
12886;SDS011;6511;49.746;6.094;2023-04-06T03:40:02;16.07;;;9.80;;
12886;SDS011;6511;49.746;6.094;2023-04-06T03:42:29;19.25;;;10.45;;
12886;SDS011;6511;49.746;6.094;2023-04-06T03:44:55;19.25;;;10.13;;
12886;SDS011;6511;49.746;6.094;2023-04-06T03:47:21;18.75;;;9.65;;
12886;SDS011;6511;49.746;6.094;2023-04-06T03:49:47;19.37;;;10.40;;
12886;SDS011;6511;49.746;6.094;2023-04-06T03:52:13;18.65;;;10.73;;
12886;SDS011;6511;49.746;6.094;2023-04-06T03:54:38;17.40;;;10.40;;
12886;SDS011;6511;49.746;6.094;2023-04-06T03:57:04;17.42;;;10.45;;
12886;SDS011;6511;49.746;6.094;2023-04-06T03:59:30;17.57;;;10.03;;
12886;SDS011;6511;49.746;6.094;2023-04-06T04:01:55;18.27;;;10.10;;
12886;SDS011;6511;49.746;6.094;2023-04-06T04:04:21;18.80;;;10.63;;
12886;SDS011;6511;49.746;6.094;2023-04-06T04:06:46;17.77;;;10.25;;
12886;SDS011;6511;49.746;6.094;2023-04-06T04:09:12;19.67;;;10.57;;
12886;SDS011;6511;49.746;6.094;2023-04-06T04:11:38;20.27;;;10.48;;
12886;SDS011;6511;49.746;6.094;2023-04-06T04:14:03;17.25;;;9.75;;
12886;SDS011;6511;49.746;6.094;2023-04-06T04:16:30;16.23;;;9.50;;
12886;SDS011;6511;49.746;6.094;2023-04-06T04:18:55;16.63;;;9.27;;
12886;SDS011;6511;49.746;6.094;2023-04-06T04:21:23;15.77;;;9.30;;
12886;SDS011;6511;49.746;6.094;2023-04-06T04:23:48;16.23;;;9.50;;
12886;SDS011;6511;49.746;6.094;2023-04-06T04:26:14;14.60;;;9.50;;
12886;SDS011;6511;49.746;6.094;2023-04-06T04:28:40;15.67;;;9.43;;
12886;SDS011;6511;49.746;6.094;2023-04-06T04:31:05;14.85;;;8.95;;
12886;SDS011;6511;49.746;6.094;2023-04-06T04:33:31;17.30;;;9.67;;
12886;SDS011;6511;49.746;6.094;2023-04-06T04:35:57;14.73;;;9.35;;
12886;SDS011;6511;49.746;6.094;2023-04-06T04:38:22;16.33;;;9.20;;
12886;SDS011;6511;49.746;6.094;2023-04-06T04:40:48;16.25;;;9.35;;
12886;SDS011;6511;49.746;6.094;2023-04-06T04:43:13;16.10;;;9.73;;
12886;SDS011;6511;49.746;6.094;2023-04-06T04:45:39;16.02;;;9.27;;
12886;SDS011;6511;49.746;6.094;2023-04-06T04:48:05;16.27;;;9.23;;
12886;SDS011;6511;49.746;6.094;2023-04-06T04:50:31;13.15;;;8.75;;
12886;SDS011;6511;49.746;6.094;2023-04-06T04:52:57;15.38;;;9.55;;
12886;SDS011;6511;49.746;6.094;2023-04-06T04:55:22;15.67;;;9.10;;
12886;SDS011;6511;49.746;6.094;2023-04-06T04:57:48;14.70;;;8.98;;
12886;SDS011;6511;49.746;6.094;2023-04-06T05:00:14;15.80;;;9.53;;
12886;SDS011;6511;49.746;6.094;2023-04-06T05:02:40;15.73;;;9.25;;
12886;SDS011;6511;49.746;6.094;2023-04-06T05:05:05;16.58;;;9.88;;
12886;SDS011;6511;49.746;6.094;2023-04-06T05:07:32;16.70;;;10.32;;
12886;SDS011;6511;49.746;6.094;2023-04-06T05:09:58;17.20;;;9.80;;
12886;SDS011;6511;49.746;6.094;2023-04-06T05:12:24;14.95;;;9.55;;
12886;SDS011;6511;49.746;6.094;2023-04-06T05:14:53;17.00;;;9.65;;
12886;SDS011;6511;49.746;6.094;2023-04-06T05:17:19;15.57;;;9.57;;
12886;SDS011;6511;49.746;6.094;2023-04-06T05:19:45;15.32;;;9.52;;
12886;SDS011;6511;49.746;6.094;2023-04-06T05:22:11;16.58;;;9.80;;
12886;SDS011;6511;49.746;6.094;2023-04-06T05:24:39;14.93;;;9.43;;
12886;SDS011;6511;49.746;6.094;2023-04-06T05:27:05;15.68;;;9.20;;
12886;SDS011;6511;49.746;6.094;2023-04-06T05:29:31;14.55;;;9.27;;
12886;SDS011;6511;49.746;6.094;2023-04-06T05:31:56;13.40;;;8.83;;
12886;SDS011;6511;49.746;6.094;2023-04-06T05:34:22;14.23;;;9.38;;
12886;SDS011;6511;49.746;6.094;2023-04-06T05:36:48;13.30;;;8.43;;
12886;SDS011;6511;49.746;6.094;2023-04-06T05:39:13;14.93;;;8.90;;
12886;SDS011;6511;49.746;6.094;2023-04-06T05:41:39;14.03;;;8.80;;
12886;SDS011;6511;49.746;6.094;2023-04-06T05:44:05;12.80;;;8.45;;
12886;SDS011;6511;49.746;6.094;2023-04-06T05:46:30;14.33;;;8.70;;
12886;SDS011;6511;49.746;6.094;2023-04-06T05:48:56;15.80;;;8.57;;
12886;SDS011;6511;49.746;6.094;2023-04-06T05:51:22;14.97;;;8.70;;
12886;SDS011;6511;49.746;6.094;2023-04-06T05:53:47;13.82;;;8.80;;
12886;SDS011;6511;49.746;6.094;2023-04-06T05:56:13;13.47;;;8.30;;
12886;SDS011;6511;49.746;6.094;2023-04-06T05:58:39;14.30;;;8.30;;
12886;SDS011;6511;49.746;6.094;2023-04-06T06:01:10;14.47;;;8.37;;
12886;SDS011;6511;49.746;6.094;2023-04-06T06:03:36;12.75;;;8.68;;
12886;SDS011;6511;49.746;6.094;2023-04-06T06:06:02;13.23;;;8.50;;
12886;SDS011;6511;49.746;6.094;2023-04-06T06:08:29;13.27;;;8.82;;
12886;SDS011;6511;49.746;6.094;2023-04-06T06:10:55;13.77;;;8.75;;
12886;SDS011;6511;49.746;6.094;2023-04-06T06:13:21;13.25;;;8.65;;
12886;SDS011;6511;49.746;6.094;2023-04-06T06:15:47;12.20;;;8.57;;
12886;SDS011;6511;49.746;6.094;2023-04-06T06:18:13;13.45;;;8.73;;
12886;SDS011;6511;49.746;6.094;2023-04-06T06:20:39;13.02;;;8.30;;
12886;SDS011;6511;49.746;6.094;2023-04-06T06:23:05;12.70;;;8.40;;
12886;SDS011;6511;49.746;6.094;2023-04-06T06:25:30;11.65;;;8.38;;
12886;SDS011;6511;49.746;6.094;2023-04-06T06:27:57;12.83;;;8.27;;
12886;SDS011;6511;49.746;6.094;2023-04-06T06:30:22;11.88;;;8.10;;
12886;SDS011;6511;49.746;6.094;2023-04-06T06:32:50;11.73;;;8.10;;
12886;SDS011;6511;49.746;6.094;2023-04-06T06:35:15;12.75;;;7.78;;
12886;SDS011;6511;49.746;6.094;2023-04-06T06:37:41;11.23;;;8.53;;
12886;SDS011;6511;49.746;6.094;2023-04-06T06:40:08;12.90;;;8.50;;
12886;SDS011;6511;49.746;6.094;2023-04-06T06:42:34;12.80;;;8.10;;
12886;SDS011;6511;49.746;6.094;2023-04-06T06:45:00;13.07;;;8.70;;
12886;SDS011;6511;49.746;6.094;2023-04-06T06:47:25;13.05;;;8.70;;
12886;SDS011;6511;49.746;6.094;2023-04-06T06:49:51;14.53;;;8.90;;
12886;SDS011;6511;49.746;6.094;2023-04-06T06:52:17;13.03;;;8.90;;
12886;SDS011;6511;49.746;6.094;2023-04-06T06:54:42;13.50;;;8.73;;
12886;SDS011;6511;49.746;6.094;2023-04-06T06:57:08;12.88;;;8.60;;
12886;SDS011;6511;49.746;6.094;2023-04-06T06:59:34;12.90;;;9.10;;
12886;SDS011;6511;49.746;6.094;2023-04-06T07:01:59;13.07;;;8.82;;
12886;SDS011;6511;49.746;6.094;2023-04-06T07:04:25;14.80;;;9.47;;
12886;SDS011;6511;49.746;6.094;2023-04-06T07:06:51;15.70;;;9.85;;
12886;SDS011;6511;49.746;6.094;2023-04-06T07:09:17;14.60;;;9.52;;
12886;SDS011;6511;49.746;6.094;2023-04-06T07:11:43;14.25;;;9.57;;
12886;SDS011;6511;49.746;6.094;2023-04-06T07:14:09;13.70;;;9.23;;
12886;SDS011;6511;49.746;6.094;2023-04-06T07:16:36;15.25;;;9.60;;
12886;SDS011;6511;49.746;6.094;2023-04-06T07:19:02;13.63;;;9.73;;
12886;SDS011;6511;49.746;6.094;2023-04-06T07:21:27;15.23;;;9.65;;
12886;SDS011;6511;49.746;6.094;2023-04-06T07:23:53;14.43;;;9.40;;
12886;SDS011;6511;49.746;6.094;2023-04-06T07:26:19;13.88;;;9.20;;
12886;SDS011;6511;49.746;6.094;2023-04-06T07:28:45;16.40;;;9.93;;
12886;SDS011;6511;49.746;6.094;2023-04-06T07:31:10;17.35;;;10.15;;
12886;SDS011;6511;49.746;6.094;2023-04-06T07:33:36;16.17;;;10.07;;
12886;SDS011;6511;49.746;6.094;2023-04-06T07:36:02;15.18;;;10.02;;
12886;SDS011;6511;49.746;6.094;2023-04-06T07:38:28;14.95;;;9.30;;
12886;SDS011;6511;49.746;6.094;2023-04-06T07:40:53;13.85;;;9.82;;
12886;SDS011;6511;49.746;6.094;2023-04-06T07:43:19;15.07;;;10.30;;
12886;SDS011;6511;49.746;6.094;2023-04-06T07:45:45;15.18;;;9.82;;
12886;SDS011;6511;49.746;6.094;2023-04-06T07:48:10;12.43;;;8.90;;
12886;SDS011;6511;49.746;6.094;2023-04-06T07:50:36;16.75;;;9.60;;
12886;SDS011;6511;49.746;6.094;2023-04-06T07:53:01;13.77;;;9.70;;
12886;SDS011;6511;49.746;6.094;2023-04-06T07:55:27;16.88;;;9.80;;
12886;SDS011;6511;49.746;6.094;2023-04-06T07:57:53;17.08;;;10.30;;
12886;SDS011;6511;49.746;6.094;2023-04-06T08:00:19;14.43;;;9.77;;
12886;SDS011;6511;49.746;6.094;2023-04-06T08:02:45;15.60;;;9.52;;
12886;SDS011;6511;49.746;6.094;2023-04-06T08:05:11;14.88;;;9.45;;
12886;SDS011;6511;49.746;6.094;2023-04-06T08:07:36;16.40;;;10.10;;
12886;SDS011;6511;49.746;6.094;2023-04-06T08:10:03;12.77;;;9.50;;
12886;SDS011;6511;49.746;6.094;2023-04-06T08:12:29;12.65;;;9.68;;
12886;SDS011;6511;49.746;6.094;2023-04-06T08:14:54;16.50;;;9.90;;
12886;SDS011;6511;49.746;6.094;2023-04-06T08:17:21;14.43;;;9.90;;
12886;SDS011;6511;49.746;6.094;2023-04-06T08:19:47;14.90;;;9.53;;
12886;SDS011;6511;49.746;6.094;2023-04-06T08:22:13;15.02;;;9.52;;
12886;SDS011;6511;49.746;6.094;2023-04-06T08:24:38;15.30;;;9.63;;
12886;SDS011;6511;49.746;6.094;2023-04-06T08:27:05;14.35;;;9.55;;
12886;SDS011;6511;49.746;6.094;2023-04-06T08:29:31;15.07;;;10.10;;
12886;SDS011;6511;49.746;6.094;2023-04-06T08:31:56;14.00;;;10.10;;
12886;SDS011;6511;49.746;6.094;2023-04-06T08:34:22;14.40;;;9.73;;
12886;SDS011;6511;49.746;6.094;2023-04-06T08:36:49;14.15;;;9.43;;
12886;SDS011;6511;49.746;6.094;2023-04-06T08:39:15;15.65;;;9.70;;
12886;SDS011;6511;49.746;6.094;2023-04-06T08:41:43;14.53;;;10.07;;
12886;SDS011;6511;49.746;6.094;2023-04-06T08:44:09;14.18;;;9.60;;
12886;SDS011;6511;49.746;6.094;2023-04-06T08:46:36;12.50;;;9.57;;
12886;SDS011;6511;49.746;6.094;2023-04-06T08:49:02;13.20;;;9.50;;
12886;SDS011;6511;49.746;6.094;2023-04-06T08:51:31;13.25;;;9.38;;
12886;SDS011;6511;49.746;6.094;2023-04-06T08:53:57;13.95;;;9.82;;
12886;SDS011;6511;49.746;6.094;2023-04-06T08:56:25;14.35;;;9.23;;
12886;SDS011;6511;49.746;6.094;2023-04-06T08:58:52;14.73;;;9.55;;
12886;SDS011;6511;49.746;6.094;2023-04-06T09:01:25;13.32;;;9.70;;
12886;SDS011;6511;49.746;6.094;2023-04-06T09:03:56;15.15;;;9.38;;
12886;SDS011;6511;49.746;6.094;2023-04-06T09:06:23;12.68;;;8.70;;
12886;SDS011;6511;49.746;6.094;2023-04-06T09:08:51;13.77;;;9.48;;
12886;SDS011;6511;49.746;6.094;2023-04-06T09:11:17;12.80;;;9.63;;
12886;SDS011;6511;49.746;6.094;2023-04-06T09:16:13;13.60;;;8.88;;
12886;SDS011;6511;49.746;6.094;2023-04-06T09:18:39;15.02;;;9.23;;
12886;SDS011;6511;49.746;6.094;2023-04-06T09:21:05;13.77;;;9.00;;
12886;SDS011;6511;49.746;6.094;2023-04-06T09:23:31;14.33;;;8.80;;
12886;SDS011;6511;49.746;6.094;2023-04-06T09:28:49;12.73;;;8.77;;
12886;SDS011;6511;49.746;6.094;2023-04-06T09:31:17;12.05;;;7.75;;
12886;SDS011;6511;49.746;6.094;2023-04-06T09:33:51;12.05;;;7.85;;
12886;SDS011;6511;49.746;6.094;2023-04-06T09:36:28;13.35;;;7.95;;
12886;SDS011;6511;49.746;6.094;2023-04-06T09:43:49;12.47;;;7.30;;
12886;SDS011;6511;49.746;6.094;2023-04-06T09:46:27;13.23;;;7.03;;
12886;SDS011;6511;49.746;6.094;2023-04-06T09:48:57;11.32;;;7.18;;
12886;SDS011;6511;49.746;6.094;2023-04-06T09:51:24;12.23;;;7.13;;
12886;SDS011;6511;49.746;6.094;2023-04-06T09:53:52;13.40;;;7.28;;
12886;SDS011;6511;49.746;6.094;2023-04-06T09:56:20;11.05;;;6.95;;
12886;SDS011;6511;49.746;6.094;2023-04-06T09:58:51;11.90;;;7.03;;
12886;SDS011;6511;49.746;6.094;2023-04-06T10:01:21;12.38;;;7.57;;
12886;SDS011;6511;49.746;6.094;2023-04-06T10:06:27;13.30;;;7.18;;
12886;SDS011;6511;49.746;6.094;2023-04-06T10:08:57;12.32;;;7.28;;
12886;SDS011;6511;49.746;6.094;2023-04-06T10:11:24;12.77;;;7.47;;
12886;SDS011;6511;49.746;6.094;2023-04-06T10:13:50;10.77;;;7.13;;
12886;SDS011;6511;49.746;6.094;2023-04-06T10:16:16;11.87;;;7.20;;
12886;SDS011;6511;49.746;6.094;2023-04-06T10:18:44;11.43;;;7.28;;
12886;SDS011;6511;49.746;6.094;2023-04-06T10:21:19;12.57;;;7.18;;
12886;SDS011;6511;49.746;6.094;2023-04-06T10:23:49;11.02;;;7.20;;
12886;SDS011;6511;49.746;6.094;2023-04-06T10:26:20;11.35;;;7.20;;
12886;SDS011;6511;49.746;6.094;2023-04-06T10:28:47;11.77;;;7.40;;
12886;SDS011;6511;49.746;6.094;2023-04-06T10:31:14;11.38;;;7.35;;
12886;SDS011;6511;49.746;6.094;2023-04-06T10:33:40;11.17;;;7.43;;
12886;SDS011;6511;49.746;6.094;2023-04-06T10:36:23;11.90;;;7.13;;
12886;SDS011;6511;49.746;6.094;2023-04-06T10:38:56;10.65;;;7.15;;
12886;SDS011;6511;49.746;6.094;2023-04-06T10:44:17;10.85;;;7.00;;
12886;SDS011;6511;49.746;6.094;2023-04-06T10:46:53;10.10;;;6.40;;
12886;SDS011;6511;49.746;6.094;2023-04-06T10:49:28;11.38;;;6.60;;
12886;SDS011;6511;49.746;6.094;2023-04-06T10:51:54;9.20;;;6.50;;
12886;SDS011;6511;49.746;6.094;2023-04-06T10:54:21;10.38;;;6.60;;
12886;SDS011;6511;49.746;6.094;2023-04-06T10:56:48;10.05;;;6.55;;
12886;SDS011;6511;49.746;6.094;2023-04-06T10:59:18;8.13;;;5.60;;
12886;SDS011;6511;49.746;6.094;2023-04-06T11:01:45;8.32;;;5.50;;
12886;SDS011;6511;49.746;6.094;2023-04-06T11:04:15;7.85;;;5.93;;
12886;SDS011;6511;49.746;6.094;2023-04-06T11:06:41;8.68;;;5.85;;
12886;SDS011;6511;49.746;6.094;2023-04-06T11:09:12;9.30;;;5.93;;
12886;SDS011;6511;49.746;6.094;2023-04-06T11:11:54;9.65;;;6.32;;
12886;SDS011;6511;49.746;6.094;2023-04-06T11:14:21;9.35;;;5.75;;
12886;SDS011;6511;49.746;6.094;2023-04-06T11:16:47;7.97;;;5.70;;
12886;SDS011;6511;49.746;6.094;2023-04-06T11:19:14;7.75;;;5.38;;
12886;SDS011;6511;49.746;6.094;2023-04-06T11:24:13;8.27;;;5.60;;
12886;SDS011;6511;49.746;6.094;2023-04-06T11:29:20;7.17;;;5.57;;
12886;SDS011;6511;49.746;6.094;2023-04-06T11:32:08;8.05;;;6.10;;
12886;SDS011;6511;49.746;6.094;2023-04-06T11:34:35;9.20;;;5.90;;
12886;SDS011;6511;49.746;6.094;2023-04-06T11:37:03;7.63;;;5.55;;
12886;SDS011;6511;49.746;6.094;2023-04-06T11:39:37;8.25;;;5.10;;
12886;SDS011;6511;49.746;6.094;2023-04-06T11:42:05;7.20;;;4.95;;
12886;SDS011;6511;49.746;6.094;2023-04-06T11:44:32;8.20;;;5.10;;
12886;SDS011;6511;49.746;6.094;2023-04-06T11:47:07;7.95;;;5.03;;
12886;SDS011;6511;49.746;6.094;2023-04-06T11:49:34;7.05;;;5.10;;
12886;SDS011;6511;49.746;6.094;2023-04-06T11:52:02;7.47;;;5.00;;
12886;SDS011;6511;49.746;6.094;2023-04-06T11:54:45;7.18;;;5.28;;
12886;SDS011;6511;49.746;6.094;2023-04-06T11:57:13;7.30;;;5.20;;
12886;SDS011;6511;49.746;6.094;2023-04-06T11:59:41;6.75;;;5.05;;
12886;SDS011;6511;49.746;6.094;2023-04-06T12:02:07;6.40;;;5.10;;
12886;SDS011;6511;49.746;6.094;2023-04-06T12:04:33;7.07;;;5.05;;
12886;SDS011;6511;49.746;6.094;2023-04-06T12:07:09;7.40;;;5.20;;
12886;SDS011;6511;49.746;6.094;2023-04-06T12:09:35;7.82;;;5.20;;
12886;SDS011;6511;49.746;6.094;2023-04-06T12:12:05;6.80;;;5.40;;
12886;SDS011;6511;49.746;6.094;2023-04-06T12:14:30;7.45;;;5.57;;
12886;SDS011;6511;49.746;6.094;2023-04-06T12:16:56;7.50;;;5.60;;
12886;SDS011;6511;49.746;6.094;2023-04-06T12:19:25;7.95;;;5.47;;
12886;SDS011;6511;49.746;6.094;2023-04-06T12:21:54;7.93;;;5.88;;
12886;SDS011;6511;49.746;6.094;2023-04-06T12:24:21;7.57;;;5.47;;
12886;SDS011;6511;49.746;6.094;2023-04-06T12:26:47;7.88;;;5.45;;
12886;SDS011;6511;49.746;6.094;2023-04-06T12:29:13;7.20;;;5.40;;
12886;SDS011;6511;49.746;6.094;2023-04-06T12:31:38;6.57;;;4.57;;
12886;SDS011;6511;49.746;6.094;2023-04-06T12:34:05;8.13;;;5.00;;
12886;SDS011;6511;49.746;6.094;2023-04-06T12:36:32;6.57;;;5.00;;
12886;SDS011;6511;49.746;6.094;2023-04-06T12:38:58;6.18;;;4.68;;
12886;SDS011;6511;49.746;6.094;2023-04-06T12:41:25;5.68;;;4.45;;
12886;SDS011;6511;49.746;6.094;2023-04-06T12:43:52;5.53;;;4.10;;
12886;SDS011;6511;49.746;6.094;2023-04-06T12:46:18;6.13;;;4.43;;
12886;SDS011;6511;49.746;6.094;2023-04-06T12:48:44;6.07;;;4.40;;
12886;SDS011;6511;49.746;6.094;2023-04-06T12:51:11;5.47;;;4.32;;
12886;SDS011;6511;49.746;6.094;2023-04-06T12:53:37;5.77;;;4.10;;
12886;SDS011;6511;49.746;6.094;2023-04-06T12:56:09;5.38;;;3.85;;
12886;SDS011;6511;49.746;6.094;2023-04-06T12:58:37;5.45;;;3.90;;
12886;SDS011;6511;49.746;6.094;2023-04-06T13:01:05;5.70;;;4.40;;
12886;SDS011;6511;49.746;6.094;2023-04-06T13:03:32;6.03;;;4.65;;
12886;SDS011;6511;49.746;6.094;2023-04-06T13:05:58;4.93;;;4.00;;
12886;SDS011;6511;49.746;6.094;2023-04-06T13:08:25;5.97;;;4.03;;
12886;SDS011;6511;49.746;6.094;2023-04-06T13:10:51;6.40;;;4.07;;
12886;SDS011;6511;49.746;6.094;2023-04-06T13:13:28;5.80;;;3.80;;
12886;SDS011;6511;49.746;6.094;2023-04-06T13:15:58;6.13;;;4.00;;
12886;SDS011;6511;49.746;6.094;2023-04-06T13:18:29;5.07;;;4.18;;
12886;SDS011;6511;49.746;6.094;2023-04-06T13:20:56;5.10;;;3.90;;
12886;SDS011;6511;49.746;6.094;2023-04-06T13:23:22;4.80;;;3.60;;
12886;SDS011;6511;49.746;6.094;2023-04-06T13:25:56;5.95;;;3.97;;
12886;SDS011;6511;49.746;6.094;2023-04-06T13:28:25;5.22;;;4.20;;
12886;SDS011;6511;49.746;6.094;2023-04-06T13:30:52;5.00;;;3.95;;
12886;SDS011;6511;49.746;6.094;2023-04-06T13:33:18;5.55;;;4.05;;
12886;SDS011;6511;49.746;6.094;2023-04-06T13:35:44;6.20;;;4.50;;
12886;SDS011;6511;49.746;6.094;2023-04-06T13:38:10;6.43;;;4.60;;
12886;SDS011;6511;49.746;6.094;2023-04-06T13:40:38;6.13;;;4.27;;
12886;SDS011;6511;49.746;6.094;2023-04-06T13:43:05;5.43;;;4.10;;
12886;SDS011;6511;49.746;6.094;2023-04-06T13:45:31;5.25;;;4.10;;
12886;SDS011;6511;49.746;6.094;2023-04-06T13:47:57;6.03;;;4.13;;
12886;SDS011;6511;49.746;6.094;2023-04-06T13:50:25;5.15;;;4.10;;
12886;SDS011;6511;49.746;6.094;2023-04-06T13:52:52;4.50;;;3.80;;
12886;SDS011;6511;49.746;6.094;2023-04-06T13:55:18;5.55;;;3.55;;
12886;SDS011;6511;49.746;6.094;2023-04-06T13:57:43;5.80;;;4.00;;
12886;SDS011;6511;49.746;6.094;2023-04-06T14:00:09;5.25;;;4.13;;
12886;SDS011;6511;49.746;6.094;2023-04-06T14:02:38;5.47;;;3.90;;
12886;SDS011;6511;49.746;6.094;2023-04-06T14:05:08;5.73;;;4.43;;
12886;SDS011;6511;49.746;6.094;2023-04-06T14:07:35;6.93;;;4.60;;
12886;SDS011;6511;49.746;6.094;2023-04-06T14:10:01;5.50;;;4.30;;
12886;SDS011;6511;49.746;6.094;2023-04-06T14:12:27;6.45;;;4.22;;
12886;SDS011;6511;49.746;6.094;2023-04-06T14:14:54;8.18;;;5.43;;
12886;SDS011;6511;49.746;6.094;2023-04-06T14:17:22;7.13;;;5.20;;
12886;SDS011;6511;49.746;6.094;2023-04-06T14:19:48;6.25;;;4.63;;
12886;SDS011;6511;49.746;6.094;2023-04-06T14:22:14;5.57;;;4.40;;
12886;SDS011;6511;49.746;6.094;2023-04-06T14:24:39;7.18;;;4.50;;
12886;SDS011;6511;49.746;6.094;2023-04-06T14:27:05;7.00;;;4.43;;
12886;SDS011;6511;49.746;6.094;2023-04-06T14:29:31;7.13;;;4.45;;
12886;SDS011;6511;49.746;6.094;2023-04-06T14:31:57;6.07;;;4.53;;
12886;SDS011;6511;49.746;6.094;2023-04-06T14:34:28;7.20;;;5.30;;
12886;SDS011;6511;49.746;6.094;2023-04-06T14:36:54;7.55;;;4.40;;
12886;SDS011;6511;49.746;6.094;2023-04-06T14:39:20;6.47;;;4.65;;
12886;SDS011;6511;49.746;6.094;2023-04-06T14:41:46;6.65;;;4.93;;
12886;SDS011;6511;49.746;6.094;2023-04-06T14:44:15;6.72;;;5.10;;
12886;SDS011;6511;49.746;6.094;2023-04-06T14:46:41;7.27;;;5.00;;
12886;SDS011;6511;49.746;6.094;2023-04-06T14:49:07;8.88;;;5.45;;
12886;SDS011;6511;49.746;6.094;2023-04-06T14:51:33;8.07;;;5.70;;
12886;SDS011;6511;49.746;6.094;2023-04-06T14:54:00;8.50;;;6.03;;
12886;SDS011;6511;49.746;6.094;2023-04-06T14:56:28;8.75;;;5.95;;
12886;SDS011;6511;49.746;6.094;2023-04-06T14:58:56;9.73;;;6.55;;
12886;SDS011;6511;49.746;6.094;2023-04-06T15:01:23;7.97;;;5.85;;
12886;SDS011;6511;49.746;6.094;2023-04-06T15:03:49;10.18;;;6.28;;
12886;SDS011;6511;49.746;6.094;2023-04-06T15:06:15;10.63;;;6.10;;
12886;SDS011;6511;49.746;6.094;2023-04-06T15:08:44;8.40;;;5.80;;